Time;durP1;ratioP1;P1;durP2;ratioP2;P2;SDS_P1;SDS_P2;PMS_P1;PMS_P2;Temp;Humidity;BMP_temperature;BMP_pressure;BME280_temperature;BME280_humidity;BME280_pressure;Samples;Min_cycle;Max_cycle;Signal;HPM_P1;HPM_P2
2021/01/19 00:01:12;;;;;;;6.15;4.78;;;8.90;99.90;;;;;;4976468;28;20212;-83
2021/01/19 00:03:40;;;;;;;7.20;4.57;;;8.50;99.90;;;;;;4976280;28;20201;-83
2021/01/19 00:06:07;;;;;;;12.57;5.05;;;8.50;99.90;;;;;;4976036;28;20206;-82
2021/01/19 00:08:34;;;;;;;6.35;4.05;;;8.80;99.90;;;;;;4976071;28;20225;-84
2021/01/19 00:11:00;;;;;;;5.55;5.00;;;8.70;99.90;;;;;;4975963;28;20209;-83
2021/01/19 00:13:27;;;;;;;9.20;5.28;;;8.80;99.90;;;;;;4976185;28;20205;-82
2021/01/19 00:15:53;;;;;;;7.93;5.55;;;8.90;99.90;;;;;;4976032;28;20208;-84
2021/01/19 00:18:19;;;;;;;8.27;5.10;;;9.00;99.90;;;;;;4975885;28;20693;-83
2021/01/19 00:20:48;;;;;;;7.95;4.88;;;8.90;99.90;;;;;;4976060;28;20206;-83
2021/01/19 00:23:14;;;;;;;6.80;5.70;;;8.70;99.90;;;;;;4975951;28;20206;-82
2021/01/19 00:25:41;;;;;;;9.18;5.28;;;8.50;99.90;;;;;;4975968;28;20202;-83
2021/01/19 00:28:08;;;;;;;10.50;6.22;;;8.50;99.90;;;;;;4975785;28;20225;-83
2021/01/19 00:30:38;;;;;;;7.53;5.50;;;8.70;99.90;;;;;;4975823;28;20653;-83
2021/01/19 00:33:04;;;;;;;13.25;6.60;;;8.80;99.90;;;;;;4975795;28;20197;-83
2021/01/19 00:35:31;;;;;;;8.68;5.88;;;8.90;99.90;;;;;;4975702;28;20197;-84
2021/01/19 00:37:59;;;;;;;9.07;5.40;;;8.90;99.90;;;;;;4975555;28;20657;-83
2021/01/19 00:40:25;;;;;;;15.65;5.82;;;8.80;99.90;;;;;;4975815;28;20201;-83
2021/01/19 00:42:52;;;;;;;8.00;5.25;;;8.70;99.90;;;;;;4975444;28;20586;-83
2021/01/19 00:45:18;;;;;;;6.75;5.10;;;8.80;99.90;;;;;;4975401;28;20289;-83
2021/01/19 00:47:44;;;;;;;6.05;5.05;;;8.80;99.90;;;;;;4975426;28;20689;-84
2021/01/19 00:50:11;;;;;;;7.00;5.15;;;8.80;99.90;;;;;;4975619;28;20580;-83
2021/01/19 00:52:38;;;;;;;12.40;6.82;;;8.90;99.90;;;;;;4975317;28;20213;-82
2021/01/19 00:55:09;;;;;;;9.65;4.65;;;8.80;99.90;;;;;;4975298;28;20248;-82
2021/01/19 00:57:35;;;;;;;11.70;5.40;;;8.80;99.90;;;;;;4975278;28;20208;-84
2021/01/19 01:00:04;;;;;;;5.93;4.18;;;8.90;99.90;;;;;;4974577;28;20194;-84
2021/01/19 01:02:30;;;;;;;6.97;5.00;;;9.00;99.90;;;;;;4975331;28;20193;-83
2021/01/19 01:04:56;;;;;;;6.40;4.63;;;9.10;99.90;;;;;;4975132;28;20201;-84
2021/01/19 01:07:23;;;;;;;6.03;5.20;;;9.00;99.90;;;;;;4974934;28;20198;-82
2021/01/19 01:09:49;;;;;;;19.45;7.25;;;9.10;99.90;;;;;;4975178;28;20194;-82
2021/01/19 01:12:16;;;;;;;9.27;4.20;;;9.20;99.90;;;;;;4975121;28;20197;-84
2021/01/19 01:14:42;;;;;;;9.63;4.68;;;9.00;99.90;;;;;;4974893;28;20248;-84
2021/01/19 01:17:09;;;;;;;8.48;5.10;;;8.70;99.90;;;;;;4974783;28;20208;-83
2021/01/19 01:19:35;;;;;;;7.60;4.90;;;8.60;99.90;;;;;;4974860;28;20677;-83
2021/01/19 01:22:01;;;;;;;7.43;4.20;;;8.60;99.90;;;;;;4974951;28;20684;-83
2021/01/19 01:24:28;;;;;;;5.32;4.68;;;8.80;99.90;;;;;;4974982;28;20285;-83
2021/01/19 01:26:54;;;;;;;6.40;4.93;;;8.90;99.90;;;;;;4974902;28;20233;-84
2021/01/19 01:29:21;;;;;;;6.28;4.40;;;8.80;99.90;;;;;;4974774;28;20591;-83
2021/01/19 01:31:47;;;;;;;9.70;5.38;;;8.70;99.90;;;;;;4975120;28;20260;-82
2021/01/19 01:34:14;;;;;;;10.50;5.30;;;8.70;99.90;;;;;;4974736;28;20198;-83
2021/01/19 01:36:40;;;;;;;5.15;3.45;;;8.90;99.90;;;;;;4974740;28;20207;-84
2021/01/19 01:39:07;;;;;;;10.73;3.63;;;8.80;99.90;;;;;;4974781;28;20194;-84
2021/01/19 01:41:33;;;;;;;4.78;3.60;;;8.70;99.90;;;;;;4974717;28;20202;-84
2021/01/19 01:44:01;;;;;;;7.80;3.50;;;8.60;99.90;;;;;;4974518;28;20560;-82
2021/01/19 01:46:30;;;;;;;9.80;4.13;;;8.50;99.90;;;;;;4974389;28;20229;-84
2021/01/19 01:48:57;;;;;;;9.52;4.32;;;8.70;99.90;;;;;;4974449;28;20240;-83
2021/01/19 01:51:26;;;;;;;5.32;3.22;;;8.80;99.90;;;;;;4974409;28;20224;-83
2021/01/19 01:53:53;;;;;;;8.15;3.25;;;8.70;99.90;;;;;;4974648;28;20209;-83
2021/01/19 01:56:20;;;;;;;10.35;3.70;;;8.80;99.90;;;;;;4974489;28;20197;-82
2021/01/19 01:58:46;;;;;;;4.03;2.88;;;8.70;99.90;;;;;;4974493;28;20204;-82
2021/01/19 02:01:12;;;;;;;4.05;3.60;;;8.90;99.90;;;;;;4974500;28;20205;-83
2021/01/19 02:03:39;;;;;;;6.30;3.78;;;8.80;99.90;;;;;;4974603;28;20206;-83
2021/01/19 02:06:06;;;;;;;4.13;3.00;;;8.50;99.90;;;;;;4974598;28;20205;-84
2021/01/19 02:08:47;;;;;;;9.07;3.58;;;8.70;99.90;;;;;;4974371;28;20287;-83
2021/01/19 02:11:23;;;;;;;11.77;3.10;;;8.70;99.90;;;;;;4976583;28;20197;-83
2021/01/19 02:13:59;;;;;;;6.30;2.95;;;8.50;99.90;;;;;;4978400;28;20203;-82
2021/01/19 02:16:40;;;;;;;4.50;2.53;;;8.30;99.90;;;;;;4978298;28;20201;-83
2021/01/19 02:19:39;;;;;;;8.25;3.10;;;8.30;99.90;;;;;;4978127;28;20240;-83
2021/01/19 02:22:15;;;;;;;6.63;3.53;;;8.60;99.90;;;;;;4978305;28;20645;-83
2021/01/19 02:24:52;;;;;;;5.63;2.95;;;8.50;99.90;;;;;;4978226;28;20204;-82
2021/01/19 02:27:51;;;;;;;4.20;2.13;;;8.40;99.90;;;;;;4978256;28;20204;-83
2021/01/19 02:30:26;;;;;;;4.93;2.75;;;8.30;99.90;;;;;;4978108;28;20202;-82
2021/01/19 02:33:14;;;;;;;5.32;2.45;;;8.30;99.90;;;;;;4978076;28;20201;-83
2021/01/19 02:35:48;;;;;;;7.53;3.00;;;8.40;99.90;;;;;;4977973;28;20247;-83
2021/01/19 02:38:23;;;;;;;6.30;2.58;;;8.60;99.90;;;;;;4978144;28;20204;-83
2021/01/19 02:40:54;;;;;;;5.28;2.15;;;8.50;99.90;;;;;;4978001;28;20704;-82
2021/01/19 02:43:25;;;;;;;4.10;2.65;;;8.70;99.90;;;;;;4977943;28;20286;-82
2021/01/19 02:45:52;;;;;;;11.85;2.10;;;8.40;99.90;;;;;;4978091;28;20234;-83
2021/01/19 02:48:19;;;;;;;5.20;2.10;;;8.60;99.90;;;;;;4977625;28;20664;-82
2021/01/19 02:50:46;;;;;;;4.60;2.55;;;8.30;99.90;;;;;;4977651;28;20564;-83
2021/01/19 02:53:13;;;;;;;9.60;2.50;;;8.50;99.90;;;;;;4977766;28;20224;-83
2021/01/19 02:55:43;;;;;;;6.28;2.40;;;8.50;99.90;;;;;;4977354;28;20673;-83
2021/01/19 02:58:17;;;;;;;8.90;3.70;;;8.60;99.90;;;;;;4977526;28;20542;-83
2021/01/19 03:00:59;;;;;;;6.95;2.92;;;8.70;99.90;;;;;;4977459;28;20595;-82
2021/01/19 03:03:28;;;;;;;10.35;2.50;;;8.50;99.90;;;;;;4977439;28;20205;-83
2021/01/19 03:05:55;;;;;;;9.52;2.28;;;8.40;99.90;;;;;;4977558;28;20193;-83
2021/01/19 03:08:24;;;;;;;6.50;2.80;;;8.40;99.90;;;;;;4977150;28;20320;-82
2021/01/19 03:10:51;;;;;;;10.20;2.28;;;8.40;99.90;;;;;;4977254;28;20274;-81
2021/01/19 03:13:18;;;;;;;4.15;2.13;;;8.40;99.90;;;;;;4977337;28;20205;-83
2021/01/19 03:15:45;;;;;;;5.78;1.90;;;8.50;99.90;;;;;;4977383;28;20201;-82
2021/01/19 03:18:11;;;;;;;4.18;2.33;;;8.60;99.90;;;;;;4977112;28;20269;-83
2021/01/19 03:20:38;;;;;;;4.40;2.40;;;8.50;99.90;;;;;;4977227;28;20281;-82
2021/01/19 03:23:05;;;;;;;4.85;2.05;;;8.40;99.90;;;;;;4976270;28;20202;-82
2021/01/19 03:25:31;;;;;;;5.20;1.80;;;8.30;99.90;;;;;;4977214;28;20198;-82
2021/01/19 03:27:57;;;;;;;4.47;1.77;;;8.30;99.90;;;;;;4976882;28;20229;-83
2021/01/19 03:30:24;;;;;;;4.50;2.88;;;8.30;99.90;;;;;;4977077;28;20198;-83
2021/01/19 03:32:50;;;;;;;5.18;1.90;;;8.50;99.90;;;;;;4976950;28;20204;-82
2021/01/19 03:35:18;;;;;;;3.42;1.60;;;8.70;99.90;;;;;;4976893;28;20202;-83
2021/01/19 03:37:45;;;;;;;9.25;2.17;;;8.80;99.90;;;;;;4976818;28;20217;-83
2021/01/19 03:40:12;;;;;;;2.58;1.70;;;8.80;99.90;;;;;;4976837;28;20204;-83
2021/01/19 03:42:39;;;;;;;5.20;2.17;;;8.70;99.90;;;;;;4976721;28;20672;-83
2021/01/19 03:45:07;;;;;;;3.38;1.67;;;8.50;99.90;;;;;;4976509;28;20820;-83
2021/01/19 03:47:35;;;;;;;3.50;1.83;;;8.40;99.90;;;;;;4976389;28;20221;-83
2021/01/19 03:50:01;;;;;;;3.55;2.10;;;8.60;99.90;;;;;;4976853;28;20198;-83
2021/01/19 03:52:27;;;;;;;4.85;2.15;;;8.70;99.90;;;;;;4976439;28;20197;-83
2021/01/19 03:54:55;;;;;;;5.18;1.80;;;8.80;99.90;;;;;;4976306;28;20206;-82
2021/01/19 03:57:21;;;;;;;6.53;2.15;;;9.00;99.90;;;;;;4976238;28;20209;-82
2021/01/19 03:59:47;;;;;;;4.32;1.95;;;8.70;99.90;;;;;;4976299;28;20204;-83
2021/01/19 04:02:13;;;;;;;5.78;2.40;;;8.70;99.90;;;;;;4976465;28;20201;-83
2021/01/19 04:04:40;;;;;;;5.63;2.15;;;8.40;99.90;;;;;;4976264;28;20201;-83
2021/01/19 04:07:07;;;;;;;5.60;2.38;;;8.50;99.90;;;;;;4976080;28;20208;-83
2021/01/19 04:09:33;;;;;;;4.75;1.77;;;8.50;99.90;;;;;;4976177;28;20231;-83
2021/01/19 04:12:00;;;;;;;4.45;1.90;;;8.50;99.90;;;;;;4976057;28;20209;-83
2021/01/19 04:14:26;;;;;;;7.18;2.33;;;8.50;99.90;;;;;;4976082;28;20194;-83
2021/01/19 04:16:53;;;;;;;3.30;2.05;;;8.50;99.90;;;;;;4975949;28;20198;-83
2021/01/19 04:19:19;;;;;;;5.95;1.95;;;8.40;99.90;;;;;;4976097;28;20202;-82
2021/01/19 04:21:45;;;;;;;10.60;2.38;;;8.40;99.90;;;;;;4975993;28;20206;-83
2021/01/19 04:24:12;;;;;;;3.33;2.08;;;8.50;99.90;;;;;;4975755;28;20202;-81
2021/01/19 04:26:38;;;;;;;4.88;1.92;;;8.50;99.90;;;;;;4975937;28;20202;-83
2021/01/19 04:29:05;;;;;;;7.43;2.75;;;8.60;99.90;;;;;;4975754;28;20266;-83
2021/01/19 04:31:31;;;;;;;3.45;1.42;;;8.60;99.90;;;;;;4975890;28;20208;-83
2021/01/19 04:33:57;;;;;;;5.40;2.72;;;8.60;99.90;;;;;;4975698;28;20641;-83
2021/01/19 04:36:24;;;;;;;8.15;2.13;;;8.60;99.90;;;;;;4975695;28;20672;-82
2021/01/19 04:38:50;;;;;;;4.70;2.70;;;8.50;99.90;;;;;;4975816;28;20602;-83
2021/01/19 04:41:18;;;;;;;10.23;2.88;;;8.60;99.90;;;;;;4975762;28;20197;-83
2021/01/19 04:43:45;;;;;;;3.58;1.90;;;8.80;99.90;;;;;;4975604;28;20220;-83
2021/01/19 04:46:13;;;;;;;2.88;2.35;;;8.80;99.90;;;;;;4975422;28;20225;-83
2021/01/19 04:48:42;;;;;;;4.75;2.45;;;8.40;99.90;;;;;;4975616;28;20279;-83
2021/01/19 04:51:16;;;;;;;3.10;1.83;;;8.30;99.90;;;;;;4975453;28;20249;-82
2021/01/19 04:53:50;;;;;;;5.55;1.83;;;8.10;99.90;;;;;;4975432;28;20277;-82
2021/01/19 04:56:20;;;;;;;4.03;1.98;;;8.00;99.90;;;;;;4975398;28;20338;-82
2021/01/19 04:58:54;;;;;;;5.65;3.75;;;8.30;99.90;;;;;;4975537;28;20204;-83
2021/01/19 05:01:38;;;;;;;4.15;1.80;;;8.30;99.90;;;;;;4975122;28;20216;-83
2021/01/19 05:04:24;;;;;;;6.60;2.67;;;8.10;99.90;;;;;;4975253;28;20271;-83
2021/01/19 05:07:32;;;;;;;5.65;2.25;;;8.00;99.90;;;;;;4975104;28;20201;-82
2021/01/19 05:13:51;;;;;;;3.97;1.98;;;8.00;99.90;;;;;;4975248;28;20211;-83
2021/01/19 05:16:19;;;;;;;5.15;2.40;;;8.00;99.90;;;;;;4960111;28;20348;-83
2021/01/19 05:18:47;;;;;;;3.70;1.90;;;8.00;99.90;;;;;;4974948;28;20364;-83
2021/01/19 05:21:14;;;;;;;4.50;2.30;;;8.00;99.90;;;;;;4974917;28;20198;-82
2021/01/19 05:23:41;;;;;;;5.10;2.35;;;8.00;99.90;;;;;;4974799;28;20596;-83
2021/01/19 05:26:08;;;;;;;4.95;3.40;;;7.80;99.90;;;;;;4974750;28;20296;-83
2021/01/19 05:28:38;;;;;;;4.07;1.75;;;7.90;99.90;;;;;;4974960;28;20229;-83
2021/01/19 05:31:06;;;;;;;7.65;2.80;;;7.90;99.90;;;;;;4974962;28;20264;-83
2021/01/19 05:33:33;;;;;;;4.88;2.88;;;7.90;99.90;;;;;;4974978;28;20751;-83
2021/01/19 05:36:06;;;;;;;6.65;2.60;;;8.00;99.90;;;;;;4974722;28;20669;-83
2021/01/19 05:38:47;;;;;;;6.35;2.45;;;8.00;99.90;;;;;;4974817;28;20209;-83
2021/01/19 05:41:40;;;;;;;6.82;2.45;;;8.10;99.90;;;;;;4974639;28;20205;-83
2021/01/19 05:44:18;;;;;;;3.60;2.60;;;8.10;99.90;;;;;;4961097;28;20637;-84
2021/01/19 05:46:48;;;;;;;4.68;2.78;;;7.80;99.90;;;;;;4973923;28;20589;-83
2021/01/19 05:49:17;;;;;;;4.95;2.88;;;8.00;99.90;;;;;;4974678;28;20225;-82
2021/01/19 05:51:46;;;;;;;5.10;2.78;;;8.00;99.90;;;;;;4974878;28;20203;-83
2021/01/19 05:54:25;;;;;;;7.63;2.75;;;8.00;99.90;;;;;;4974757;28;20205;-83
2021/01/19 05:56:58;;;;;;;5.30;2.50;;;8.10;99.90;;;;;;4974902;28;20586;-82
2021/01/19 05:59:29;;;;;;;5.72;2.22;;;8.20;99.90;;;;;;4974523;28;20645;-81
2021/01/19 06:02:06;;;;;;;7.93;2.33;;;7.90;99.90;;;;;;4974468;28;20649;-83
2021/01/19 06:04:44;;;;;;;4.05;2.45;;;7.90;99.90;;;;;;4974801;28;20193;-84
2021/01/19 06:07:12;;;;;;;9.02;2.65;;;7.60;99.90;;;;;;4974536;28;20203;-83
2021/01/19 06:09:40;;;;;;;6.35;2.65;;;7.80;99.90;;;;;;4974269;28;20229;-83
2021/01/19 06:12:07;;;;;;;5.32;2.42;;;7.80;99.90;;;;;;4974432;28;20561;-84
2021/01/19 06:14:34;;;;;;;5.20;2.33;;;7.70;99.90;;;;;;4974535;28;20208;-83
2021/01/19 06:17:05;;;;;;;4.72;3.08;;;7.80;99.90;;;;;;4974440;28;20657;-82
2021/01/19 06:19:32;;;;;;;11.63;3.03;;;7.80;99.90;;;;;;4974536;28;20726;-83
2021/01/19 06:21:58;;;;;;;7.75;3.20;;;7.90;99.90;;;;;;4974482;28;20216;-83
2021/01/19 06:24:37;;;;;;;5.30;3.38;;;8.00;99.90;;;;;;4974212;28;20198;-82
2021/01/19 06:27:04;;;;;;;10.63;2.75;;;8.00;99.90;;;;;;4974317;28;20205;-83
2021/01/19 06:29:31;;;;;;;6.70;2.85;;;7.80;99.90;;;;;;4974366;28;20249;-83
2021/01/19 06:31:59;;;;;;;2.33;2.00;;;7.70;99.90;;;;;;4974492;28;20220;-83
2021/01/19 06:34:26;;;;;;;8.65;2.75;;;7.70;99.90;;;;;;4974245;28;20209;-83
2021/01/19 06:36:53;;;;;;;7.72;2.53;;;7.50;99.90;;;;;;4973976;28;20317;-83
2021/01/19 06:39:35;;;;;;;3.85;2.90;;;7.60;99.90;;;;;;4974125;28;20202;-82
2021/01/19 06:42:10;;;;;;;6.82;2.33;;;7.50;99.90;;;;;;4974308;28;20201;-83
2021/01/19 06:44:41;;;;;;;5.40;2.40;;;7.50;99.90;;;;;;4974266;28;20205;-84
2021/01/19 06:47:08;;;;;;;2.47;2.22;;;7.60;99.90;;;;;;4974327;28;20218;-91
2021/01/19 06:49:37;;;;;;;6.93;3.63;;;7.70;99.90;;;;;;4974157;28;20288;-91
2021/01/19 06:52:06;;;;;;;6.38;2.70;;;7.80;99.90;;;;;;4974397;28;20205;-79
2021/01/19 06:54:50;;;;;;;5.68;3.15;;;7.60;99.90;;;;;;4974101;28;20605;-80
2021/01/19 06:57:31;;;;;;;3.50;2.22;;;7.60;99.90;;;;;;4974454;28;20205;-80
2021/01/19 07:00:10;;;;;;;4.32;3.30;;;7.60;99.90;;;;;;4977336;28;20201;-80
2021/01/19 07:02:38;;;;;;;8.50;2.80;;;7.80;99.90;;;;;;4977215;28;20627;-79
2021/01/19 07:05:09;;;;;;;3.63;3.20;;;7.70;99.90;;;;;;4977331;28;20200;-80
2021/01/19 07:07:40;;;;;;;3.00;2.50;;;7.70;99.90;;;;;;4977062;28;20256;-80
2021/01/19 07:10:13;;;;;;;4.40;2.35;;;7.60;99.90;;;;;;4977015;28;20229;-79
2021/01/19 07:12:59;;;;;;;3.17;2.22;;;7.40;99.90;;;;;;4977072;28;20200;-79
2021/01/19 07:15:58;;;;;;;6.43;2.20;;;7.50;99.90;;;;;;4977039;28;20198;-80
2021/01/19 07:18:48;;;;;;;7.78;2.88;;;7.50;99.90;;;;;;4972776;28;20224;-79
2021/01/19 07:21:15;;;;;;;5.53;2.55;;;7.40;99.90;;;;;;4977296;28;20613;-80
2021/01/19 07:24:16;;;;;;;3.67;3.35;;;7.50;99.90;;;;;;4977118;28;20248;-80
2021/01/19 07:26:45;;;;;;;3.85;2.50;;;7.70;99.90;;;;;;4966461;28;20594;-80
2021/01/19 07:29:12;;;;;;;5.88;2.33;;;7.70;99.90;;;;;;4976795;28;20248;-80
2021/01/19 07:31:39;;;;;;;6.97;2.45;;;7.80;99.90;;;;;;4976798;28;20198;-80
2021/01/19 07:34:07;;;;;;;3.92;2.70;;;7.80;99.90;;;;;;4976732;28;20202;-80
2021/01/19 07:36:34;;;;;;;2.70;2.45;;;8.00;99.90;;;;;;4976457;28;20202;-80
2021/01/19 07:39:11;;;;;;;4.00;2.35;;;8.10;99.90;;;;;;4976790;28;20288;-80
2021/01/19 07:41:38;;;;;;;5.57;2.03;;;8.20;99.90;;;;;;4976803;28;20216;-81
2021/01/19 07:44:05;;;;;;;2.28;2.08;;;8.20;99.90;;;;;;4976719;28;20201;-81
2021/01/19 07:46:31;;;;;;;3.83;2.60;;;7.90;99.90;;;;;;4976548;28;20693;-81
2021/01/19 07:49:02;;;;;;;6.40;3.10;;;7.80;99.90;;;;;;4976441;28;20768;-81
2021/01/19 07:51:41;;;;;;;3.65;2.25;;;7.90;99.90;;;;;;4976511;28;20206;-81
2021/01/19 07:54:09;;;;;;;3.33;2.38;;;7.80;99.90;;;;;;4975614;28;20201;-80
2021/01/19 07:56:35;;;;;;;3.35;1.90;;;7.70;99.90;;;;;;4997683;28;20201;-80
2021/01/19 07:59:02;;;;;;;4.47;2.35;;;7.80;99.90;;;;;;4995507;28;20201;-80
2021/01/19 08:01:31;;;;;;;3.17;1.95;;;7.80;99.90;;;;;;4990065;28;20198;-80
2021/01/19 08:04:09;;;;;;;2.72;2.50;;;7.80;99.90;;;;;;4981651;28;20201;-81
2021/01/19 08:06:35;;;;;;;2.50;2.03;;;7.70;99.90;;;;;;4995146;28;20196;-82
2021/01/19 08:09:12;;;;;;;3.92;2.20;;;7.60;99.90;;;;;;4994754;28;20279;-82
2021/01/19 08:11:41;;;;;;;3.58;2.10;;;7.80;99.90;;;;;;4995332;28;20648;-82
2021/01/19 08:14:08;;;;;;;4.85;2.22;;;7.90;99.90;;;;;;4981781;28;20190;-83
2021/01/19 08:16:37;;;;;;;2.83;2.00;;;7.80;99.90;;;;;;4975512;28;20198;-81
2021/01/19 08:19:09;;;;;;;5.95;2.72;;;8.00;99.90;;;;;;4975598;28;20356;-80
2021/01/19 08:21:37;;;;;;;3.22;2.10;;;8.20;99.90;;;;;;4975896;28;20212;-80
2021/01/19 08:24:07;;;;;;;6.85;2.45;;;8.20;99.90;;;;;;4975826;28;20202;-82
2021/01/19 08:26:34;;;;;;;2.25;2.05;;;8.20;99.90;;;;;;4975630;28;20202;-80
2021/01/19 08:29:02;;;;;;;3.72;2.47;;;8.10;99.90;;;;;;4975144;28;20689;-79
2021/01/19 08:31:29;;;;;;;3.10;2.40;;;8.10;99.90;;;;;;4975502;28;20197;-78
2021/01/19 08:34:00;;;;;;;2.25;1.65;;;7.90;99.90;;;;;;4975395;28;20202;-80
2021/01/19 08:36:28;;;;;;;1.83;1.70;;;8.00;99.90;;;;;;4986732;28;20201;-80
2021/01/19 08:38:58;;;;;;;2.20;1.88;;;8.10;99.90;;;;;;4994466;28;20236;-81
2021/01/19 08:41:25;;;;;;;2.83;2.05;;;8.10;99.90;;;;;;4994863;28;20207;-80
2021/01/19 08:43:56;;;;;;;1.80;1.70;;;8.10;99.90;;;;;;4994950;28;20652;-80
2021/01/19 08:46:23;;;;;;;4.82;1.90;;;8.10;99.90;;;;;;4994445;28;20669;-79
2021/01/19 08:48:50;;;;;;;4.25;2.10;;;8.10;99.90;;;;;;4994194;28;20228;-80
2021/01/19 08:51:25;;;;;;;3.75;3.35;;;8.10;99.90;;;;;;4976182;28;20537;-79
2021/01/19 08:53:51;;;;;;;2.65;2.10;;;8.10;99.90;;;;;;4975243;28;20193;-80
2021/01/19 08:56:22;;;;;;;2.97;2.15;;;8.00;99.90;;;;;;4974785;28;20602;-79
2021/01/19 08:58:48;;;;;;;2.33;2.17;;;7.90;99.90;;;;;;4974963;28;20264;-81
2021/01/19 09:01:15;;;;;;;3.40;2.22;;;7.90;99.90;;;;;;4974761;28;20260;-81
2021/01/19 09:03:41;;;;;;;2.20;1.60;;;7.90;99.90;;;;;;4975034;28;20201;-81
2021/01/19 09:06:09;;;;;;;2.15;1.83;;;7.80;99.90;;;;;;4974739;28;20193;-81
2021/01/19 09:08:38;;;;;;;2.38;1.80;;;7.70;99.90;;;;;;4974767;28;20228;-80
2021/01/19 09:11:07;;;;;;;4.53;2.40;;;7.80;99.90;;;;;;4974856;28;20201;-80
2021/01/19 09:13:37;;;;;;;4.13;2.97;;;8.10;99.90;;;;;;4974896;28;20559;-81
2021/01/19 09:16:04;;;;;;;2.53;1.75;;;8.20;99.90;;;;;;4974523;28;20209;-81
2021/01/19 09:18:30;;;;;;;2.00;1.77;;;8.40;99.90;;;;;;4980785;28;20700;-87
2021/01/19 09:21:04;;;;;;;7.15;1.73;;;8.20;99.90;;;;;;4991029;28;20208;-81
2021/01/19 09:23:33;;;;;;;2.63;2.42;;;8.20;99.90;;;;;;4974732;28;20192;-84
2021/01/19 09:26:05;;;;;;;2.00;1.80;;;8.00;99.90;;;;;;4989319;28;20205;-81
2021/01/19 09:28:33;;;;;;;3.85;2.13;;;7.90;99.90;;;;;;4975086;28;20261;-80
2021/01/19 09:31:10;;;;;;;2.10;1.95;;;8.00;99.90;;;;;;4977818;28;20256;-80
2021/01/19 09:33:37;;;;;;;1.80;1.70;;;8.20;99.90;;;;;;4990544;28;20251;-81
2021/01/19 09:36:06;;;;;;;4.45;1.98;;;8.30;99.90;;;;;;4974753;28;20201;-82
2021/01/19 09:38:33;;;;;;;1.90;1.80;;;8.10;99.90;;;;;;4974119;28;20193;-82
2021/01/19 09:41:00;;;;;;;3.80;1.80;;;8.10;99.90;;;;;;4974092;28;20253;-82
2021/01/19 09:43:28;;;;;;;2.47;2.00;;;7.80;99.90;;;;;;4974781;28;20615;-90
2021/01/19 09:45:58;;;;;;;3.40;1.90;;;7.90;99.90;;;;;;4976522;28;20230;-84
2021/01/19 09:48:26;;;;;;;3.15;2.33;;;8.10;99.90;;;;;;4974689;28;20221;-86
2021/01/19 09:50:53;;;;;;;3.45;2.28;;;8.20;99.90;;;;;;4973872;28;20198;-81
2021/01/19 09:53:27;;;;;;;2.08;1.65;;;8.10;99.90;;;;;;4973766;28;20209;-85
2021/01/19 09:55:54;;;;;;;2.08;1.88;;;8.30;99.90;;;;;;4974081;28;20283;-83
2021/01/19 09:58:22;;;;;;;2.88;1.83;;;8.40;99.90;;;;;;4974431;28;20194;-87
2021/01/19 10:00:49;;;;;;;2.25;1.73;;;8.30;99.90;;;;;;4973953;28;20201;-83
2021/01/19 10:03:16;;;;;;;2.20;2.00;;;8.40;99.90;;;;;;4992633;28;20204;-80
2021/01/19 10:05:43;;;;;;;6.40;2.50;;;8.40;99.90;;;;;;4987204;28;20205;-80
2021/01/19 10:08:10;;;;;;;2.50;2.22;;;8.20;99.90;;;;;;4973417;28;20647;-80
2021/01/19 10:10:37;;;;;;;3.20;1.80;;;8.20;99.90;;;;;;4973543;28;20209;-82
2021/01/19 10:13:05;;;;;;;2.65;1.45;;;8.10;99.90;;;;;;4973588;28;20194;-81
2021/01/19 10:15:32;;;;;;;1.95;1.30;;;8.20;99.90;;;;;;4973572;28;20562;-82
2021/01/19 10:17:59;;;;;;;2.38;2.10;;;8.00;99.90;;;;;;4973512;28;20232;-81
2021/01/19 10:20:32;;;;;;;3.28;1.90;;;8.10;99.90;;;;;;4973734;28;20207;-82
2021/01/19 10:22:58;;;;;;;2.28;1.30;;;8.20;99.90;;;;;;4973629;28;20204;-82
2021/01/19 10:25:30;;;;;;;3.80;2.17;;;8.30;99.90;;;;;;4974541;28;20201;-83
2021/01/19 10:27:58;;;;;;;2.15;1.55;;;8.30;99.90;;;;;;4979056;28;20202;-81
2021/01/19 10:30:30;;;;;;;2.03;1.83;;;8.40;99.90;;;;;;4975303;28;20236;-85
2021/01/19 10:32:56;;;;;;;2.30;1.40;;;8.30;99.90;;;;;;4979602;28;20553;-82
2021/01/19 10:35:29;;;;;;;3.17;1.20;;;8.30;99.90;;;;;;4994667;28;20256;-82
2021/01/19 10:37:59;;;;;;;1.60;1.50;;;8.20;99.90;;;;;;4996994;28;20201;-82
2021/01/19 10:40:26;;;;;;;2.05;1.75;;;8.10;99.90;;;;;;4996819;28;20208;-82
2021/01/19 10:42:52;;;;;;;1.50;1.40;;;8.20;99.90;;;;;;4996867;28;20192;-83
2021/01/19 10:45:25;;;;;;;2.33;1.58;;;8.20;99.90;;;;;;4996443;28;20232;-84
2021/01/19 10:47:51;;;;;;;6.28;2.17;;;8.30;99.90;;;;;;4996614;28;20221;-84
2021/01/19 10:50:19;;;;;;;1.45;1.35;;;8.30;99.90;;;;;;4996546;28;20228;-84
2021/01/19 10:52:54;;;;;;;1.70;1.45;;;8.30;99.90;;;;;;4996720;28;20204;-87
2021/01/19 10:55:21;;;;;;;2.88;1.50;;;8.20;99.90;;;;;;4996879;28;20200;-88
2021/01/19 10:57:47;;;;;;;2.40;1.50;;;8.40;99.90;;;;;;4996567;28;20205;-81
2021/01/19 11:00:15;;;;;;;2.10;1.63;;;8.30;99.90;;;;;;4996121;28;20201;-81
2021/01/19 11:02:41;;;;;;;2.15;1.38;;;8.50;99.90;;;;;;4981574;28;20686;-82
2021/01/19 11:05:08;;;;;;;1.30;1.10;;;8.50;99.90;;;;;;4977630;28;20198;-81
2021/01/19 11:07:34;;;;;;;4.80;1.65;;;8.70;99.90;;;;;;4996034;28;20633;-82
2021/01/19 11:10:01;;;;;;;2.80;2.25;;;8.60;99.90;;;;;;4996035;28;20225;-81
2021/01/19 11:12:28;;;;;;;1.80;1.70;;;8.40;99.90;;;;;;4996040;28;20193;-82
2021/01/19 11:14:54;;;;;;;8.15;1.75;;;8.50;99.90;;;;;;4994236;28;20197;-82
2021/01/19 11:17:21;;;;;;;1.80;1.70;;;8.60;99.90;;;;;;4995735;28;20220;-81
2021/01/19 11:19:47;;;;;;;4.43;1.60;;;8.60;99.90;;;;;;4978033;28;20197;-83
2021/01/19 11:22:13;;;;;;;2.40;1.60;;;8.80;99.90;;;;;;4976862;28;20657;-84
2021/01/19 11:24:39;;;;;;;2.40;1.50;;;8.90;99.90;;;;;;4976602;28;20201;-83
2021/01/19 11:27:06;;;;;;;3.38;2.15;;;8.90;99.90;;;;;;4976365;28;20198;-82
2021/01/19 11:29:33;;;;;;;4.00;1.50;;;9.00;99.90;;;;;;4976222;28;20232;-82
2021/01/19 11:32:00;;;;;;;2.35;2.10;;;9.00;99.90;;;;;;4976411;28;20198;-81
2021/01/19 11:34:26;;;;;;;2.03;1.80;;;9.00;99.90;;;;;;4976329;28;20272;-82
2021/01/19 11:36:52;;;;;;;2.95;2.15;;;8.90;99.90;;;;;;4990549;28;20201;-83
2021/01/19 11:39:18;;;;;;;2.90;2.30;;;9.00;99.90;;;;;;4995463;28;20690;-83
2021/01/19 11:41:45;;;;;;;3.83;2.00;;;8.90;99.90;;;;;;4996112;28;20208;-83
2021/01/19 11:44:12;;;;;;;3.60;2.33;;;8.80;99.90;;;;;;4994676;28;20259;-83
2021/01/19 11:46:38;;;;;;;2.40;2.20;;;8.90;99.90;;;;;;4994919;28;20224;-83
2021/01/19 11:49:07;;;;;;;2.65;2.00;;;9.10;99.90;;;;;;4994606;28;20327;-83
2021/01/19 11:51:35;;;;;;;2.08;1.95;;;9.10;99.90;;;;;;4975992;28;20197;-82
2021/01/19 11:54:03;;;;;;;3.85;2.42;;;8.80;99.90;;;;;;4975796;28;20202;-82
2021/01/19 11:56:34;;;;;;;1.80;1.70;;;8.90;99.90;;;;;;4975819;28;20198;-83
2021/01/19 11:59:01;;;;;;;2.22;2.00;;;9.00;99.90;;;;;;4975797;28;20202;-83
2021/01/19 12:01:28;;;;;;;2.17;2.00;;;9.00;99.90;;;;;;4975774;28;20198;-83
2021/01/19 12:03:54;;;;;;;2.28;1.92;;;9.10;99.90;;;;;;4975867;28;20201;-84
2021/01/19 12:06:21;;;;;;;4.68;2.45;;;9.20;99.90;;;;;;4988418;28;20203;-85
2021/01/19 12:08:48;;;;;;;2.90;2.70;;;9.10;99.90;;;;;;4995064;28;20209;-82
2021/01/19 12:11:15;;;;;;;3.25;2.80;;;9.10;99.90;;;;;;4995376;28;20197;-83
2021/01/19 12:13:42;;;;;;;2.53;2.42;;;9.00;99.90;;;;;;4995371;28;20692;-81
2021/01/19 12:16:09;;;;;;;4.68;2.80;;;9.10;99.90;;;;;;4994779;28;20201;-88
2021/01/19 12:18:38;;;;;;;2.58;2.38;;;9.30;99.90;;;;;;4995125;28;20219;-83
2021/01/19 12:21:05;;;;;;;4.00;3.40;;;9.20;99.90;;;;;;4994906;28;20232;-83
2021/01/19 12:23:32;;;;;;;3.10;2.45;;;9.10;99.90;;;;;;4994042;28;20244;-86
2021/01/19 12:25:59;;;;;;;3.67;2.30;;;9.30;99.90;;;;;;4995236;28;20197;-82
2021/01/19 12:28:26;;;;;;;2.80;2.60;;;9.20;99.90;;;;;;4995143;28;20537;-83
2021/01/19 12:30:53;;;;;;;3.28;2.97;;;9.30;99.90;;;;;;4995193;28;20675;-82
2021/01/19 12:33:20;;;;;;;3.15;2.85;;;9.20;99.90;;;;;;4995212;28;20208;-83
2021/01/19 12:35:47;;;;;;;3.97;2.55;;;9.30;99.90;;;;;;4995071;28;20292;-84
2021/01/19 12:38:14;;;;;;;3.22;2.92;;;9.30;99.90;;;;;;4995267;28;20197;-82
2021/01/19 12:40:41;;;;;;;4.50;3.20;;;9.30;99.90;;;;;;4995300;28;20227;-82
2021/01/19 12:43:08;;;;;;;3.17;2.97;;;9.50;99.90;;;;;;4995154;28;20668;-83
2021/01/19 12:45:34;;;;;;;3.20;2.97;;;9.40;99.90;;;;;;4994851;28;20232;-83
2021/01/19 12:48:00;;;;;;;3.70;3.40;;;9.40;99.90;;;;;;4994894;28;20217;-82
2021/01/19 12:50:27;;;;;;;3.83;3.25;;;9.40;99.90;;;;;;4994821;28;20711;-83
2021/01/19 12:52:54;;;;;;;3.67;3.38;;;9.40;99.90;;;;;;4994931;28;20222;-82
2021/01/19 12:55:21;;;;;;;6.32;3.28;;;9.50;99.90;;;;;;4994637;28;20219;-82
2021/01/19 12:57:47;;;;;;;4.00;3.70;;;9.50;99.90;;;;;;5004318;28;20204;-83
2021/01/19 13:00:15;;;;;;;3.88;3.58;;;9.40;99.90;;;;;;4975693;28;20201;-82
2021/01/19 13:02:41;;;;;;;3.80;3.60;;;9.50;99.90;;;;;;4979135;28;20220;-83
2021/01/19 13:05:09;;;;;;;4.15;3.85;;;9.50;99.90;;;;;;4986358;28;20196;-87
2021/01/19 13:07:35;;;;;;;3.90;3.60;;;9.40;99.90;;;;;;4994494;28;20197;-86
2021/01/19 13:10:03;;;;;;;4.10;3.10;;;9.50;99.90;;;;;;4994387;28;20228;-86